createdAt,value
2023-04-30T00:00:47.269Z,6.79
2023-04-30T00:03:16.183Z,6.81
2023-04-30T00:05:44.180Z,6.86
2023-04-30T00:08:12.189Z,6.88
2023-04-30T00:10:40.297Z,6.89
2023-04-30T00:13:10.235Z,6.92
2023-04-30T00:15:38.308Z,6.96
2023-04-30T00:18:08.022Z,6.95
2023-04-30T00:20:36.128Z,6.96
2023-04-30T00:23:04.205Z,6.99
2023-04-30T00:25:32.262Z,7.00
2023-04-30T00:28:00.338Z,6.99
2023-04-30T00:30:28.440Z,6.99
2023-04-30T00:32:56.603Z,7.02
2023-04-30T00:35:26.091Z,7.05
2023-04-30T00:37:54.168Z,7.07
2023-04-30T00:40:22.419Z,7.10
2023-04-30T00:42:52.370Z,7.09
2023-04-30T00:45:22.126Z,7.11
2023-04-30T00:47:50.775Z,7.10
2023-04-30T00:50:18.946Z,7.13
2023-04-30T00:52:48.501Z,7.13
2023-04-30T00:55:16.903Z,7.13
2023-04-30T00:57:45.184Z,7.16
2023-04-30T01:00:14.305Z,7.17
2023-04-30T01:02:42.424Z,7.18
2023-04-30T01:05:11.040Z,7.20
2023-04-30T01:07:44.873Z,7.24
2023-04-30T01:10:15.782Z,7.26
2023-04-30T01:12:51.356Z,7.24
2023-04-30T01:15:25.030Z,7.26
2023-04-30T01:17:57.768Z,7.25
2023-04-30T01:20:29.267Z,7.28
2023-04-30T01:23:11.773Z,7.28
2023-04-30T01:26:01.205Z,7.32
2023-04-30T01:28:30.824Z,7.36
2023-04-30T01:30:59.702Z,7.38
2023-04-30T01:33:28.306Z,7.43
2023-04-30T01:36:25.034Z,7.45
2023-04-30T01:39:15.212Z,7.45
2023-04-30T01:41:51.953Z,7.49
2023-04-30T01:44:39.632Z,7.43
2023-04-30T01:47:14.059Z,7.48
2023-04-30T01:49:52.838Z,7.51
2023-04-30T01:52:32.414Z,7.57
2023-04-30T01:55:04.456Z,7.59
2023-04-30T01:57:34.114Z,7.64
2023-04-30T02:00:04.694Z,7.65
2023-04-30T02:02:41.750Z,7.65
2023-04-30T02:05:10.239Z,7.68
2023-04-30T02:07:41.586Z,7.69
2023-04-30T02:10:10.909Z,7.70
2023-04-30T02:12:39.003Z,7.73
2023-04-30T02:15:10.354Z,7.73
2023-04-30T02:17:38.603Z,7.74
2023-04-30T02:20:09.258Z,7.78
2023-04-30T02:22:37.509Z,7.83
2023-04-30T02:25:06.955Z,7.84
2023-04-30T02:27:35.311Z,7.86
2023-04-30T02:30:04.396Z,7.90
2023-04-30T02:32:34.315Z,7.91
2023-04-30T02:35:02.694Z,7.98
2023-04-30T02:37:31.230Z,8.03
2023-04-30T02:39:59.657Z,8.09
2023-04-30T02:42:28.032Z,8.16
2023-04-30T02:44:56.098Z,8.20
2023-04-30T02:47:24.266Z,8.26
2023-04-30T02:49:53.805Z,8.28
2023-04-30T02:52:22.096Z,8.27
2023-04-30T02:54:50.631Z,8.32
2023-04-30T02:57:18.653Z,8.34
2023-04-30T02:59:46.753Z,8.36
2023-04-30T03:02:15.615Z,8.41
2023-04-30T03:04:43.691Z,8.41
2023-04-30T03:07:13.214Z,8.57
2023-04-30T03:09:41.330Z,8.74
2023-04-30T03:12:10.076Z,8.86
2023-04-30T03:14:38.637Z,8.93
2023-04-30T03:17:06.970Z,9.04
2023-04-30T03:19:35.277Z,8.98
2023-04-30T03:22:04.744Z,8.92
2023-04-30T03:24:34.214Z,8.89
2023-04-30T03:27:02.345Z,8.86
2023-04-30T03:29:30.551Z,8.84
2023-04-30T03:31:58.756Z,8.84
2023-04-30T03:34:26.981Z,8.82
2023-04-30T03:36:55.138Z,8.90
2023-04-30T03:39:23.125Z,8.92
2023-04-30T03:41:52.523Z,8.86
2023-04-30T03:44:20.536Z,8.84
2023-04-30T03:46:48.615Z,8.88
2023-04-30T03:49:16.751Z,8.87
2023-04-30T03:51:45.109Z,8.89
2023-04-30T03:54:14.049Z,8.88
2023-04-30T03:56:42.260Z,8.97
2023-04-30T03:59:12.257Z,9.02
2023-04-30T04:01:41.640Z,9.03
2023-04-30T04:04:10.238Z,9.07
2023-04-30T04:06:38.300Z,9.12
2023-04-30T04:09:06.883Z,9.16
2023-04-30T04:11:35.224Z,9.20
2023-04-30T04:14:04.204Z,9.20
2023-04-30T04:16:33.838Z,9.18
2023-04-30T04:19:02.061Z,9.22
2023-04-30T04:21:31.296Z,9.23
2023-04-30T04:23:59.598Z,9.22
2023-04-30T04:26:29.149Z,9.25
2023-04-30T04:28:57.403Z,9.30
2023-04-30T04:31:25.576Z,9.30
2023-04-30T04:33:58.772Z,9.35
2023-04-30T04:36:28.777Z,9.39
2023-04-30T04:39:01.936Z,9.39
2023-04-30T04:41:30.744Z,9.41
2023-04-30T04:43:59.001Z,9.37
2023-04-30T04:46:28.447Z,9.31
2023-04-30T04:48:58.048Z,9.34
2023-04-30T04:51:26.949Z,9.32
2023-04-30T04:53:55.925Z,9.42
2023-04-30T04:56:24.059Z,9.43
2023-04-30T04:58:52.142Z,9.55
2023-04-30T05:01:20.411Z,9.59
2023-04-30T05:03:49.240Z,9.69
2023-04-30T05:06:18.991Z,9.67
2023-04-30T05:08:47.610Z,9.73
2023-04-30T05:11:15.955Z,9.68
2023-04-30T05:13:45.333Z,9.61
2023-04-30T05:16:13.479Z,9.63
2023-04-30T05:18:41.527Z,9.57
2023-04-30T05:21:09.649Z,9.55
2023-04-30T05:23:38.958Z,9.64
2023-04-30T05:26:07.017Z,9.64
2023-04-30T05:28:35.685Z,9.65
2023-04-30T05:31:04.150Z,9.68
2023-04-30T05:33:32.242Z,9.69
2023-04-30T05:36:00.475Z,9.70
2023-04-30T05:38:29.019Z,9.71
2023-04-30T05:40:58.478Z,9.82
2023-04-30T05:43:26.642Z,9.98
2023-04-30T05:45:55.142Z,10.10
2023-04-30T05:48:23.229Z,10.25
2023-04-30T05:50:51.360Z,10.29
2023-04-30T05:53:19.390Z,10.52
2023-04-30T05:55:47.518Z,10.71
2023-04-30T05:58:17.046Z,10.93
2023-04-30T06:00:45.117Z,11.08
2023-04-30T06:03:13.198Z,11.60
2023-04-30T06:05:41.880Z,12.97
2023-04-30T06:08:10.053Z,15.19
2023-04-30T06:10:39.275Z,16.78
2023-04-30T06:13:07.595Z,16.85
2023-04-30T06:15:37.073Z,16.28
2023-04-30T06:18:05.257Z,15.58
2023-04-30T06:20:33.672Z,15.56
2023-04-30T06:23:03.829Z,16.34
2023-04-30T06:25:32.188Z,17.64
2023-04-30T06:28:00.149Z,17.32
2023-04-30T06:30:28.349Z,16.55
2023-04-30T06:32:57.944Z,16.53
2023-04-30T06:35:26.307Z,16.60
2023-04-30T06:37:54.252Z,16.47
2023-04-30T06:40:22.409Z,16.32
2023-04-30T06:42:50.680Z,15.96
2023-04-30T06:45:19.631Z,15.33
2023-04-30T06:47:47.968Z,14.89
2023-04-30T06:50:17.523Z,14.72
2023-04-30T06:52:45.725Z,14.56
2023-04-30T06:55:14.058Z,14.52
2023-04-30T06:57:42.111Z,14.67
2023-04-30T07:00:10.822Z,15.10
2023-04-30T07:02:39.427Z,15.33
2023-04-30T07:05:08.171Z,14.94
2023-04-30T07:07:37.982Z,15.15
2023-04-30T07:10:07.313Z,15.02
2023-04-30T07:12:35.373Z,14.88
2023-04-30T07:15:03.522Z,14.97
2023-04-30T07:17:32.020Z,14.94
2023-04-30T07:20:00.152Z,14.78
2023-04-30T07:22:28.199Z,14.56
2023-04-30T07:24:57.698Z,14.27
2023-04-30T07:27:25.776Z,14.10
2023-04-30T07:29:54.059Z,13.96
2023-04-30T07:32:22.337Z,13.65
2023-04-30T07:34:51.452Z,13.51
2023-04-30T07:37:19.449Z,13.35
2023-04-30T07:39:47.513Z,13.16
2023-04-30T07:42:17.076Z,13.05
2023-04-30T07:44:45.206Z,13.15
2023-04-30T07:47:13.313Z,13.11
2023-04-30T07:49:41.453Z,13.17
2023-04-30T07:52:11.109Z,13.17
2023-04-30T07:54:40.386Z,13.13
2023-04-30T07:57:08.591Z,13.00
2023-04-30T07:59:37.911Z,13.03
2023-04-30T08:02:06.480Z,12.92
2023-04-30T08:04:35.608Z,12.83
2023-04-30T08:07:04.607Z,12.63
2023-04-30T08:09:32.779Z,12.47
2023-04-30T08:12:02.036Z,12.33
2023-04-30T08:14:30.245Z,12.14
2023-04-30T08:17:01.009Z,12.06
2023-04-30T08:19:29.234Z,11.95
2023-04-30T08:21:57.336Z,11.81
2023-04-30T08:24:25.481Z,11.75
2023-04-30T08:26:54.774Z,11.67
2023-04-30T08:29:22.984Z,11.50
2023-04-30T08:31:51.128Z,11.47
2023-04-30T08:34:20.653Z,11.33
2023-04-30T08:36:49.389Z,11.21
2023-04-30T08:39:17.354Z,11.02
2023-04-30T08:41:47.998Z,10.98
2023-04-30T08:44:16.174Z,10.90
2023-04-30T08:46:46.368Z,10.80
2023-04-30T08:49:14.510Z,10.82
2023-04-30T08:51:44.333Z,10.78
2023-04-30T08:54:14.572Z,10.74
2023-04-30T08:56:42.742Z,10.65
2023-04-30T08:59:10.890Z,10.64
2023-04-30T09:01:38.949Z,10.61
2023-04-30T09:04:09.373Z,10.56
2023-04-30T09:06:37.719Z,10.48
2023-04-30T09:09:12.847Z,10.43
2023-04-30T09:11:41.007Z,10.39
2023-04-30T09:14:09.904Z,10.30
2023-04-30T09:16:50.031Z,10.27
2023-04-30T09:19:29.747Z,10.13
2023-04-30T09:21:58.326Z,9.96
2023-04-30T09:24:27.716Z,9.83
2023-04-30T09:26:55.730Z,9.90
2023-04-30T09:29:23.783Z,9.89
2023-04-30T09:31:52.176Z,9.91
2023-04-30T09:34:35.624Z,9.73
2023-04-30T09:37:04.190Z,9.76
2023-04-30T09:39:33.728Z,9.84
2023-04-30T09:42:12.125Z,9.90
2023-04-30T09:44:42.018Z,9.87
2023-04-30T09:47:14.250Z,9.95
2023-04-30T09:49:44.381Z,9.92
2023-04-30T09:52:13.662Z,9.83
2023-04-30T09:54:45.923Z,9.79
2023-04-30T09:57:15.853Z,9.78
2023-04-30T09:59:47.700Z,9.76
2023-04-30T10:02:18.372Z,9.66
2023-04-30T10:04:50.369Z,9.61
2023-04-30T10:07:22.508Z,9.56
2023-04-30T10:10:06.400Z,9.52
2023-04-30T10:12:44.177Z,9.53
2023-04-30T10:15:16.781Z,9.53
2023-04-30T10:17:48.450Z,9.54
2023-04-30T10:20:18.555Z,9.53
2023-04-30T10:22:49.003Z,9.59
2023-04-30T10:25:19.505Z,9.65
2023-04-30T10:27:48.346Z,9.67
2023-04-30T10:30:17.388Z,9.71
2023-04-30T10:32:53.669Z,9.76
2023-04-30T10:35:27.297Z,9.77
2023-04-30T10:38:00.952Z,9.68
2023-04-30T10:40:30.407Z,9.71
2023-04-30T10:43:00.177Z,9.61
2023-04-30T10:45:37.863Z,9.68
2023-04-30T10:48:07.834Z,9.64
2023-04-30T10:50:45.559Z,9.68
2023-04-30T10:53:17.381Z,9.72
2023-04-30T10:55:54.866Z,9.65
2023-04-30T10:58:28.000Z,9.64
2023-04-30T11:01:04.401Z,9.60
2023-04-30T11:03:33.684Z,9.64
2023-04-30T11:06:04.017Z,9.54
2023-04-30T11:08:36.389Z,9.60
2023-04-30T11:11:21.363Z,9.61
2023-04-30T11:14:00.155Z,9.57
2023-04-30T11:16:30.826Z,9.59
2023-04-30T11:19:08.532Z,9.57
2023-04-30T11:21:41.786Z,9.57
2023-04-30T11:24:09.968Z,9.49
2023-04-30T11:27:06.646Z,9.43
2023-04-30T11:29:36.082Z,9.37
2023-04-30T11:32:06.248Z,9.34
2023-04-30T11:34:36.191Z,9.24
2023-04-30T11:37:04.658Z,9.27
2023-04-30T11:39:36.652Z,9.40
2023-04-30T11:42:08.004Z,9.50
2023-04-30T11:44:38.734Z,9.60
2023-04-30T11:47:07.257Z,9.62
2023-04-30T11:49:35.328Z,9.64
2023-04-30T11:52:03.674Z,9.59
2023-04-30T11:54:33.303Z,9.57
2023-04-30T11:57:04.432Z,9.56
2023-04-30T11:59:42.163Z,9.55
2023-04-30T12:02:13.508Z,9.48
2023-04-30T12:04:44.536Z,9.39
2023-04-30T12:07:13.215Z,9.38
2023-04-30T12:09:54.982Z,9.36
2023-04-30T12:12:30.059Z,9.48
2023-04-30T12:14:59.682Z,9.58
2023-04-30T12:17:34.334Z,9.69
2023-04-30T12:20:02.822Z,9.79
2023-04-30T12:22:31.687Z,9.88
2023-04-30T12:25:01.761Z,9.99
2023-04-30T12:27:31.982Z,10.16
2023-04-30T12:30:08.218Z,10.35
2023-04-30T12:32:43.737Z,10.48
2023-04-30T12:35:16.605Z,10.59
2023-04-30T12:37:46.484Z,10.57
2023-04-30T12:40:15.429Z,10.65
2023-04-30T12:42:44.793Z,10.62
2023-04-30T12:45:15.062Z,10.70
2023-04-30T12:47:44.146Z,10.76
2023-04-30T12:50:13.393Z,10.87
2023-04-30T12:52:42.424Z,11.04
2023-04-30T12:55:23.036Z,11.08
2023-04-30T12:58:16.703Z,11.12
2023-04-30T13:00:51.449Z,11.20
2023-04-30T13:03:21.928Z,11.39
2023-04-30T13:05:53.710Z,11.56
2023-04-30T13:08:23.332Z,11.74
2023-04-30T13:10:51.973Z,11.82
2023-04-30T13:13:21.263Z,11.90
2023-04-30T13:15:51.709Z,11.91
2023-04-30T13:18:19.815Z,11.84
2023-04-30T13:20:48.128Z,11.96
2023-04-30T13:23:16.112Z,12.13
2023-04-30T13:25:44.503Z,12.21
2023-04-30T13:28:13.328Z,12.26
2023-04-30T13:30:42.044Z,12.24
2023-04-30T13:33:12.052Z,12.15
2023-04-30T13:35:40.725Z,12.06
2023-04-30T13:38:09.908Z,11.90
2023-04-30T13:40:37.899Z,11.69
2023-04-30T13:43:05.911Z,11.50
2023-04-30T13:45:34.086Z,11.35
2023-04-30T13:48:02.576Z,11.18
2023-04-30T13:50:32.491Z,11.04
2023-04-30T13:53:01.151Z,10.86
2023-04-30T13:55:29.372Z,10.70
2023-04-30T13:57:58.537Z,10.51
2023-04-30T14:00:27.287Z,10.44
2023-04-30T14:02:55.770Z,10.37
2023-04-30T14:05:24.304Z,10.33
2023-04-30T14:07:53.744Z,10.36
2023-04-30T14:10:21.896Z,10.22
2023-04-30T14:12:49.916Z,10.06
2023-04-30T14:15:18.009Z,10.01
2023-04-30T14:17:46.146Z,10.06
2023-04-30T14:20:15.034Z,10.04
2023-04-30T14:22:43.449Z,10.15
2023-04-30T14:25:12.994Z,10.16
2023-04-30T14:27:43.277Z,10.15
2023-04-30T14:30:12.320Z,10.14
2023-04-30T14:32:40.549Z,10.16
2023-04-30T14:35:11.135Z,10.16
2023-04-30T14:37:39.225Z,10.19
2023-04-30T14:40:09.665Z,10.18
2023-04-30T14:42:39.159Z,10.12
2023-04-30T14:45:09.069Z,9.97
2023-04-30T14:47:37.489Z,9.91
2023-04-30T14:50:06.474Z,9.88
2023-04-30T14:52:34.711Z,9.91
2023-04-30T14:55:03.267Z,9.97
2023-04-30T14:57:32.184Z,10.02
2023-04-30T15:00:01.817Z,10.03
2023-04-30T15:02:30.975Z,9.89
2023-04-30T15:04:59.122Z,9.96
2023-04-30T15:07:27.688Z,10.00
2023-04-30T15:09:55.991Z,10.08
2023-04-30T15:12:24.245Z,10.09
2023-04-30T15:14:52.319Z,10.06
2023-04-30T15:17:22.507Z,10.05
2023-04-30T15:19:50.687Z,10.13
2023-04-30T15:22:18.801Z,10.24
2023-04-30T15:24:46.965Z,10.30
2023-04-30T15:27:14.976Z,10.37
2023-04-30T15:29:43.116Z,10.36
2023-04-30T15:32:11.268Z,10.30
2023-04-30T15:34:40.592Z,10.32
2023-04-30T15:37:09.114Z,10.32
2023-04-30T15:39:37.195Z,10.30
2023-04-30T15:42:05.221Z,10.32
2023-04-30T15:44:33.329Z,10.28
2023-04-30T15:47:01.618Z,10.23
2023-04-30T15:49:29.747Z,10.21
2023-04-30T15:51:59.181Z,10.16
2023-04-30T15:54:27.316Z,10.10
2023-04-30T15:56:55.354Z,10.02
2023-04-30T15:59:23.376Z,9.92
2023-04-30T16:01:51.495Z,9.81
2023-04-30T16:04:19.656Z,9.71
2023-04-30T16:06:47.845Z,9.54
2023-04-30T16:09:19.747Z,9.34
2023-04-30T16:11:48.540Z,9.18
2023-04-30T16:14:16.670Z,9.14
2023-04-30T16:16:44.893Z,9.04
2023-04-30T16:19:14.020Z,8.95
2023-04-30T16:21:42.316Z,8.83
2023-04-30T16:24:11.831Z,8.78
2023-04-30T16:26:41.185Z,8.63
2023-04-30T16:29:09.559Z,8.63
2023-04-30T16:31:37.882Z,8.58
2023-04-30T16:34:06.377Z,8.56
2023-04-30T16:36:34.435Z,8.57
2023-04-30T16:39:02.481Z,8.55
2023-04-30T16:41:30.667Z,8.50
2023-04-30T16:44:00.137Z,8.44
2023-04-30T16:46:28.430Z,8.48
2023-04-30T16:48:56.523Z,8.44
2023-04-30T16:51:24.834Z,8.44
2023-04-30T16:53:52.893Z,8.40
2023-04-30T16:56:21.467Z,8.41
2023-04-30T16:58:49.526Z,8.43
2023-04-30T17:01:19.288Z,8.44
2023-04-30T17:03:47.487Z,8.46
2023-04-30T17:06:15.668Z,8.47
2023-04-30T17:08:43.820Z,8.45
2023-04-30T17:11:11.968Z,8.43
2023-04-30T17:13:39.982Z,8.44
2023-04-30T17:16:08.071Z,8.43
2023-04-30T17:18:37.549Z,8.30
2023-04-30T17:21:06.399Z,8.26
2023-04-30T17:23:34.434Z,8.25
2023-04-30T17:26:03.908Z,8.25
2023-04-30T17:28:32.704Z,8.23
2023-04-30T17:31:04.176Z,8.23
2023-04-30T17:33:33.648Z,8.20
2023-04-30T17:36:03.151Z,8.18
2023-04-30T17:38:31.214Z,8.15
2023-04-30T17:40:59.347Z,8.10
2023-04-30T17:43:27.678Z,8.08
2023-04-30T17:45:57.242Z,7.99
2023-04-30T17:48:25.600Z,7.99
2023-04-30T17:50:53.701Z,7.97
2023-04-30T17:53:23.046Z,7.95
2023-04-30T17:55:51.142Z,7.87
2023-04-30T17:58:19.195Z,7.87
2023-04-30T18:00:47.650Z,7.80
2023-04-30T18:03:15.878Z,7.80
2023-04-30T18:05:45.166Z,7.79
2023-04-30T18:08:13.218Z,7.74
2023-04-30T18:10:42.522Z,7.73
2023-04-30T18:13:11.384Z,7.70
2023-04-30T18:15:39.429Z,7.72
2023-04-30T18:18:07.518Z,7.73
2023-04-30T18:20:36.341Z,7.72
2023-04-30T18:23:05.493Z,7.71
2023-04-30T18:25:37.016Z,7.68
2023-04-30T18:28:07.679Z,7.62
2023-04-30T18:30:36.235Z,7.63
2023-04-30T18:33:05.234Z,7.63
2023-04-30T18:35:34.026Z,7.62
2023-04-30T18:38:02.581Z,7.58
2023-04-30T18:40:31.008Z,7.57
2023-04-30T18:42:59.069Z,7.54
2023-04-30T18:45:28.518Z,7.49
2023-04-30T18:47:56.774Z,7.50
2023-04-30T18:50:26.110Z,7.47
2023-04-30T18:52:54.497Z,7.49
2023-04-30T18:55:22.506Z,7.48
2023-04-30T18:57:51.439Z,7.44
2023-04-30T19:00:19.528Z,7.43
2023-04-30T19:02:49.174Z,7.38
2023-04-30T19:05:17.348Z,7.35
2023-04-30T19:07:45.352Z,7.30
2023-04-30T19:10:13.741Z,7.32
2023-04-30T19:12:43.952Z,7.32
2023-04-30T19:15:15.150Z,7.29
2023-04-30T19:17:43.494Z,7.27
2023-04-30T19:20:14.049Z,7.21
2023-04-30T19:22:42.664Z,7.16
2023-04-30T19:25:11.539Z,7.10
2023-04-30T19:27:39.883Z,7.03
2023-04-30T19:30:09.116Z,6.97
2023-04-30T19:32:38.092Z,6.88
2023-04-30T19:35:07.445Z,6.83
2023-04-30T19:37:37.487Z,6.74
2023-04-30T19:40:10.484Z,6.68
2023-04-30T19:42:40.129Z,6.62
2023-04-30T19:45:10.519Z,6.58
2023-04-30T19:47:38.751Z,6.51
2023-04-30T19:50:08.045Z,6.45
2023-04-30T19:52:37.604Z,6.34
2023-04-30T19:55:06.587Z,6.31
2023-04-30T19:57:35.920Z,6.29
2023-04-30T20:00:06.318Z,6.31
2023-04-30T20:02:35.483Z,6.39
2023-04-30T20:05:06.478Z,6.48
2023-04-30T20:07:35.609Z,6.52
2023-04-30T20:10:05.527Z,6.54
2023-04-30T20:12:33.640Z,6.53
2023-04-30T20:15:01.657Z,6.55
2023-04-30T20:17:33.954Z,6.58
2023-04-30T20:20:02.059Z,6.59
2023-04-30T20:22:31.448Z,6.60
2023-04-30T20:24:59.489Z,6.61
2023-04-30T20:27:29.002Z,6.62
2023-04-30T20:29:57.307Z,6.59
2023-04-30T20:32:25.625Z,6.50
2023-04-30T20:34:54.118Z,6.41
2023-04-30T20:37:22.273Z,6.35
2023-04-30T20:39:50.298Z,6.28
2023-04-30T20:42:19.336Z,6.24
2023-04-30T20:44:48.978Z,6.20
2023-04-30T20:47:17.159Z,6.16
2023-04-30T20:49:45.284Z,6.11
2023-04-30T20:52:13.644Z,6.07
2023-04-30T20:54:41.752Z,6.02
2023-04-30T20:57:10.018Z,5.97
2023-04-30T20:59:38.554Z,5.94
2023-04-30T21:02:08.227Z,5.92
2023-04-30T21:04:36.313Z,5.90
2023-04-30T21:07:04.455Z,5.87
2023-04-30T21:09:32.800Z,5.86
2023-04-30T21:12:01.381Z,5.88
2023-04-30T21:14:29.326Z,5.90
2023-04-30T21:16:57.425Z,5.92
2023-04-30T21:19:27.721Z,5.95
2023-04-30T21:21:55.837Z,5.94
2023-04-30T21:24:23.973Z,5.96
2023-04-30T21:26:52.540Z,6.00
2023-04-30T21:29:20.492Z,6.00
2023-04-30T21:31:48.468Z,5.99
2023-04-30T21:34:16.491Z,5.94
2023-04-30T21:36:46.672Z,5.92
2023-04-30T21:39:14.599Z,5.85
2023-04-30T21:41:42.610Z,5.76
2023-04-30T21:44:10.640Z,5.68
2023-04-30T21:46:38.896Z,5.65
2023-04-30T21:49:06.931Z,5.66
2023-04-30T21:51:36.497Z,5.72
2023-04-30T21:54:06.022Z,5.81
2023-04-30T21:56:34.106Z,5.90
2023-04-30T21:59:02.528Z,5.95
2023-04-30T22:01:33.363Z,5.99
2023-04-30T22:04:02.119Z,6.03
2023-04-30T22:06:30.904Z,6.05
2023-04-30T22:08:58.794Z,6.08
2023-04-30T22:11:28.225Z,6.11
2023-04-30T22:13:56.167Z,6.10
2023-04-30T22:16:24.408Z,6.04
2023-04-30T22:18:52.506Z,6.02
2023-04-30T22:21:21.250Z,6.04
2023-04-30T22:23:49.157Z,6.10
2023-04-30T22:26:17.297Z,6.14
2023-04-30T22:28:46.602Z,6.17
2023-04-30T22:31:14.650Z,6.20
2023-04-30T22:33:43.085Z,6.17
2023-04-30T22:36:11.489Z,6.13
2023-04-30T22:38:39.440Z,6.09
2023-04-30T22:41:07.516Z,6.12
2023-04-30T22:43:35.643Z,6.13
2023-04-30T22:46:05.187Z,6.13
2023-04-30T22:48:34.321Z,6.16
2023-04-30T22:51:02.787Z,6.22
2023-04-30T22:53:30.819Z,6.27
2023-04-30T22:55:59.528Z,6.25
2023-04-30T22:58:27.542Z,6.28
2023-04-30T23:00:56.380Z,6.28
2023-04-30T23:03:26.261Z,6.30
2023-04-30T23:05:54.279Z,6.30
2023-04-30T23:08:22.323Z,6.31
2023-04-30T23:10:50.453Z,6.32
2023-04-30T23:13:18.670Z,6.32
2023-04-30T23:15:46.811Z,6.31
2023-04-30T23:18:14.864Z,6.33
2023-04-30T23:20:44.274Z,6.32
2023-04-30T23:23:12.277Z,6.31
2023-04-30T23:25:40.441Z,6.32
2023-04-30T23:28:08.415Z,6.32
2023-04-30T23:30:38.954Z,6.22
2023-04-30T23:33:07.067Z,6.19
2023-04-30T23:35:35.001Z,6.19
2023-04-30T23:38:04.803Z,6.19
2023-04-30T23:40:32.769Z,6.17
2023-04-30T23:43:01.065Z,6.19
2023-04-30T23:45:29.071Z,6.19
2023-04-30T23:47:57.190Z,6.16
2023-04-30T23:50:25.211Z,6.15
2023-04-30T23:52:53.775Z,6.13
2023-04-30T23:55:23.159Z,6.12
2023-04-30T23:57:51.706Z,6.11
